<?xml version="1.0" encoding="utf-8"?>
<gpx xmlns:xsi="http://www.w3.org/2001/XMLSchema-instance" xmlns:xsd="http://www.w3.org/2001/XMLSchema" version="1.1" creator="Shapelink.com" xmlns="http://www.topografix.com/GPX/1/1" xmlns:gpxtpx="http://www.garmin.com/xmlschemas/TrackPointExtension/v1">
  <metadata>
    <name>Nordisk skiløb 6.26 km, 2020-02-27</name>
    <desc></desc>
    <author><name>Per Rooth</name></author> 
    <time>2020-02-27T18:43:38Z</time>
  </metadata>
  <trk>
    <name>Nordisk skiløb 6.26 km, 2020-02-27</name>
    <trkseg>
      <trkpt lat="56.894706501355" lon="14.864239758745">
        <ele>180.2</ele>
        <time>2020-02-27T18:43:38Z</time>
      </trkpt>
      <trkpt lat="56.89513523554" lon="14.86441703593">
        <ele>180.6</ele>
        <time>2020-02-27T18:43:56Z</time>
      </trkpt>
      <trkpt lat="56.89547805525" lon="14.864447546046">
        <ele>179.4</ele>
        <time>2020-02-27T18:44:07Z</time>
      </trkpt>
      <trkpt lat="56.89560378375" lon="14.864495322876">
        <ele>178.6</ele>
        <time>2020-02-27T18:44:11Z</time>
      </trkpt>
      <trkpt lat="56.895840907701" lon="14.864552990348">
        <ele>178</ele>
        <time>2020-02-27T18:44:22Z</time>
      </trkpt>
      <trkpt lat="56.895832441982" lon="14.864555588737">
        <ele>178</ele>
        <time>2020-02-27T18:44:30Z</time>
      </trkpt>
      <trkpt lat="56.895885667047" lon="14.864567742492">
        <ele>177.8</ele>
        <time>2020-02-27T18:44:34Z</time>
      </trkpt>
      <trkpt lat="56.896151540915" lon="14.863968269004">
        <ele>178.2</ele>
        <time>2020-02-27T18:44:49Z</time>
      </trkpt>
      <trkpt lat="56.896345162805" lon="14.863720667678">
        <ele>177.4</ele>
        <time>2020-02-27T18:44:56Z</time>
      </trkpt>
      <trkpt lat="56.896411631272" lon="14.863427636454">
        <ele>177.4</ele>
        <time>2020-02-27T18:45:01Z</time>
      </trkpt>
      <trkpt lat="56.896518165221" lon="14.863013319137">
        <ele>177</ele>
        <time>2020-02-27T18:45:09Z</time>
      </trkpt>
      <trkpt lat="56.896627884292" lon="14.862870156285">
        <ele>176.2</ele>
        <time>2020-02-27T18:45:13Z</time>
      </trkpt>
      <trkpt lat="56.897070867707" lon="14.862722634845">
        <ele>175.6</ele>
        <time>2020-02-27T18:45:28Z</time>
      </trkpt>
      <trkpt lat="56.897288126555" lon="14.862568994618">
        <ele>175</ele>
        <time>2020-02-27T18:45:34Z</time>
      </trkpt>
      <trkpt lat="56.897597251027" lon="14.86266186607">
        <ele>174.6</ele>
        <time>2020-02-27T18:45:44Z</time>
      </trkpt>
      <trkpt lat="56.897824735793" lon="14.862960680805">
        <ele>174</ele>
        <time>2020-02-27T18:45:53Z</time>
      </trkpt>
      <trkpt lat="56.897888522052" lon="14.863248934346">
        <ele>173</ele>
        <time>2020-02-27T18:46:10Z</time>
      </trkpt>
      <trkpt lat="56.897921211462" lon="14.863319426125">
        <ele>173</ele>
        <time>2020-02-27T18:46:13Z</time>
      </trkpt>
      <trkpt lat="56.898064374314" lon="14.86347574856">
        <ele>174</ele>
        <time>2020-02-27T18:46:21Z</time>
      </trkpt>
      <trkpt lat="56.898154982653" lon="14.863501480993">
        <ele>174</ele>
        <time>2020-02-27T18:46:28Z</time>
      </trkpt>
      <trkpt lat="56.898580615535" lon="14.863188417028">
        <ele>174</ele>
        <time>2020-02-27T18:46:47Z</time>
      </trkpt>
      <trkpt lat="56.898918992838" lon="14.863338536857">
        <ele>174.4</ele>
        <time>2020-02-27T18:47:06Z</time>
      </trkpt>
      <trkpt lat="56.899033405773" lon="14.863811946569">
        <ele>173.8</ele>
        <time>2020-02-27T18:47:23Z</time>
      </trkpt>
      <trkpt lat="56.899042122949" lon="14.863917307052">
        <ele>174</ele>
        <time>2020-02-27T18:47:29Z</time>
      </trkpt>
      <trkpt lat="56.899048157917" lon="14.864100283929">
        <ele>174.4</ele>
        <time>2020-02-27T18:47:38Z</time>
      </trkpt>
      <trkpt lat="56.899124349388" lon="14.864099697196">
        <ele>175.2</ele>
        <time>2020-02-27T18:47:43Z</time>
      </trkpt>
      <trkpt lat="56.899570434106" lon="14.863977908189">
        <ele>175.8</ele>
        <time>2020-02-27T18:48:02Z</time>
      </trkpt>
      <trkpt lat="56.899594154883" lon="14.863975561257">
        <ele>175.8</ele>
        <time>2020-02-27T18:48:03Z</time>
      </trkpt>
      <trkpt lat="56.899772521715" lon="14.864007412477">
        <ele>176.2</ele>
        <time>2020-02-27T18:48:10Z</time>
      </trkpt>
      <trkpt lat="56.900244506504" lon="14.863978494922">
        <ele>176.4</ele>
        <time>2020-02-27T18:48:29Z</time>
      </trkpt>
      <trkpt lat="56.90069159705" lon="14.86406164337">
        <ele>176.4</ele>
        <time>2020-02-27T18:48:46Z</time>
      </trkpt>
      <trkpt lat="56.901147237134" lon="14.864095841522">
        <ele>176.2</ele>
        <time>2020-02-27T18:49:04Z</time>
      </trkpt>
      <trkpt lat="56.901209179375" lon="14.864151245881">
        <ele>176.8</ele>
        <time>2020-02-27T18:49:07Z</time>
      </trkpt>
      <trkpt lat="56.901261147155" lon="14.864266245549">
        <ele>177.2</ele>
        <time>2020-02-27T18:49:10Z</time>
      </trkpt>
      <trkpt lat="56.901197109439" lon="14.864933277151">
        <ele>177.6</ele>
        <time>2020-02-27T18:49:29Z</time>
      </trkpt>
      <trkpt lat="56.900744989753" lon="14.864984825836">
        <ele>178</ele>
        <time>2020-02-27T18:49:47Z</time>
      </trkpt>
      <trkpt lat="56.900660751658" lon="14.864975354289">
        <ele>178.2</ele>
        <time>2020-02-27T18:49:50Z</time>
      </trkpt>
      <trkpt lat="56.900204860117" lon="14.864989268243">
        <ele>178</ele>
        <time>2020-02-27T18:50:08Z</time>
      </trkpt>
      <trkpt lat="56.899883498071" lon="14.864884578312">
        <ele>178.2</ele>
        <time>2020-02-27T18:50:20Z</time>
      </trkpt>
      <trkpt lat="56.899470186582" lon="14.864483672035">
        <ele>177.2</ele>
        <time>2020-02-27T18:50:36Z</time>
      </trkpt>
      <trkpt lat="56.899192661873" lon="14.864346879427">
        <ele>176</ele>
        <time>2020-02-27T18:50:48Z</time>
      </trkpt>
      <trkpt lat="56.898775746167" lon="14.864697494304">
        <ele>176.8</ele>
        <time>2020-02-27T18:51:10Z</time>
      </trkpt>
      <trkpt lat="56.898658818662" lon="14.864813332162">
        <ele>177.2</ele>
        <time>2020-02-27T18:51:16Z</time>
      </trkpt>
      <trkpt lat="56.898276855479" lon="14.865252878998">
        <ele>178</ele>
        <time>2020-02-27T18:51:36Z</time>
      </trkpt>
      <trkpt lat="56.898254308168" lon="14.865275174852">
        <ele>178.2</ele>
        <time>2020-02-27T18:51:37Z</time>
      </trkpt>
      <trkpt lat="56.898077701535" lon="14.86547650809">
        <ele>178.4</ele>
        <time>2020-02-27T18:51:45Z</time>
      </trkpt>
      <trkpt lat="56.897836638091" lon="14.866134822516">
        <ele>179.2</ele>
        <time>2020-02-27T18:52:07Z</time>
      </trkpt>
      <trkpt lat="56.897839487937" lon="14.866171954333">
        <ele>179.4</ele>
        <time>2020-02-27T18:52:08Z</time>
      </trkpt>
      <trkpt lat="56.898237963463" lon="14.866463141539">
        <ele>180.2</ele>
        <time>2020-02-27T18:52:31Z</time>
      </trkpt>
      <trkpt lat="56.898606850882" lon="14.866368006974">
        <ele>180</ele>
        <time>2020-02-27T18:52:47Z</time>
      </trkpt>
      <trkpt lat="56.898921088313" lon="14.866220317896">
        <ele>180.2</ele>
        <time>2020-02-27T18:53:00Z</time>
      </trkpt>
      <trkpt lat="56.898990490445" lon="14.866317128841">
        <ele>180.2</ele>
        <time>2020-02-27T18:53:04Z</time>
      </trkpt>
      <trkpt lat="56.899028041357" lon="14.866499518985">
        <ele>180.6</ele>
        <time>2020-02-27T18:53:10Z</time>
      </trkpt>
      <trkpt lat="56.899076321101" lon="14.866879973426">
        <ele>181.6</ele>
        <time>2020-02-27T18:53:21Z</time>
      </trkpt>
      <trkpt lat="56.899065592269" lon="14.867108128744">
        <ele>182.6</ele>
        <time>2020-02-27T18:53:28Z</time>
      </trkpt>
      <trkpt lat="56.899125103759" lon="14.867382133055">
        <ele>183.4</ele>
        <time>2020-02-27T18:53:36Z</time>
      </trkpt>
      <trkpt lat="56.899206492008" lon="14.867491349212">
        <ele>183.6</ele>
        <time>2020-02-27T18:53:40Z</time>
      </trkpt>
      <trkpt lat="56.899671352182" lon="14.867521859328">
        <ele>183.8</ele>
        <time>2020-02-27T18:53:56Z</time>
      </trkpt>
      <trkpt lat="56.900120873479" lon="14.867238299651">
        <ele>184</ele>
        <time>2020-02-27T18:54:12Z</time>
      </trkpt>
      <trkpt lat="56.900428321571" lon="14.86682934675">
        <ele>182.6</ele>
        <time>2020-02-27T18:54:28Z</time>
      </trkpt>
      <trkpt lat="56.900015596815" lon="14.866745863026">
        <ele>182</ele>
        <time>2020-02-27T18:54:47Z</time>
      </trkpt>
      <trkpt lat="56.899960360094" lon="14.866254264591">
        <ele>181.2</ele>
        <time>2020-02-27T18:54:56Z</time>
      </trkpt>
      <trkpt lat="56.900047448035" lon="14.866147982099">
        <ele>180.2</ele>
        <time>2020-02-27T18:54:59Z</time>
      </trkpt>
      <trkpt lat="56.900494873857" lon="14.865966262507">
        <ele>179.6</ele>
        <time>2020-02-27T18:55:16Z</time>
      </trkpt>
      <trkpt lat="56.900840627232" lon="14.865874480702">
        <ele>179.2</ele>
        <time>2020-02-27T18:55:29Z</time>
      </trkpt>
      <trkpt lat="56.901123516357" lon="14.865313815411">
        <ele>178.4</ele>
        <time>2020-02-27T18:55:47Z</time>
      </trkpt>
      <trkpt lat="56.901074398423" lon="14.865080714772">
        <ele>178.2</ele>
        <time>2020-02-27T18:55:53Z</time>
      </trkpt>
      <trkpt lat="56.90063124737" lon="14.865086917378">
        <ele>178.6</ele>
        <time>2020-02-27T18:56:13Z</time>
      </trkpt>
      <trkpt lat="56.900346598046" lon="14.865124803566">
        <ele>179</ele>
        <time>2020-02-27T18:56:24Z</time>
      </trkpt>
      <trkpt lat="56.899882324605" lon="14.865113488001">
        <ele>178.4</ele>
        <time>2020-02-27T18:56:41Z</time>
      </trkpt>
      <trkpt lat="56.899447136357" lon="14.865333848152">
        <ele>179</ele>
        <time>2020-02-27T18:57:00Z</time>
      </trkpt>
      <trkpt lat="56.899146309966" lon="14.86544298049">
        <ele>179.2</ele>
        <time>2020-02-27T18:57:12Z</time>
      </trkpt>
      <trkpt lat="56.899076321101" lon="14.86620154244">
        <ele>179.8</ele>
        <time>2020-02-27T18:57:34Z</time>
      </trkpt>
      <trkpt lat="56.899085708829" lon="14.86646808686">
        <ele>180.2</ele>
        <time>2020-02-27T18:57:41Z</time>
      </trkpt>
      <trkpt lat="56.89910238881" lon="14.86671702929">
        <ele>181.2</ele>
        <time>2020-02-27T18:57:48Z</time>
      </trkpt>
      <trkpt lat="56.899102556448" lon="14.866956583992">
        <ele>182.2</ele>
        <time>2020-02-27T18:57:58Z</time>
      </trkpt>
      <trkpt lat="56.899098281679" lon="14.867028416875">
        <ele>183.2</ele>
        <time>2020-02-27T18:58:00Z</time>
      </trkpt>
      <trkpt lat="56.899156116789" lon="14.867320693728">
        <ele>184.2</ele>
        <time>2020-02-27T18:58:07Z</time>
      </trkpt>
      <trkpt lat="56.899594909254" lon="14.867519512396">
        <ele>183.4</ele>
        <time>2020-02-27T18:58:26Z</time>
      </trkpt>
      <trkpt lat="56.90004451437" lon="14.867275766744">
        <ele>184</ele>
        <time>2020-02-27T18:58:43Z</time>
      </trkpt>
      <trkpt lat="56.900070079165" lon="14.867258080935">
        <ele>183.2</ele>
        <time>2020-02-27T18:58:44Z</time>
      </trkpt>
      <trkpt lat="56.900410049029" lon="14.867086754899">
        <ele>182.2</ele>
        <time>2020-02-27T18:58:58Z</time>
      </trkpt>
      <trkpt lat="56.900419604395" lon="14.866996481836">
        <ele>182</ele>
        <time>2020-02-27T18:59:00Z</time>
      </trkpt>
      <trkpt lat="56.90005205808" lon="14.866743096999">
        <ele>182.8</ele>
        <time>2020-02-27T18:59:17Z</time>
      </trkpt>
      <trkpt lat="56.899937058412" lon="14.866162650424">
        <ele>181</ele>
        <time>2020-02-27T18:59:30Z</time>
      </trkpt>
      <trkpt lat="56.899967065614" lon="14.866111437015">
        <ele>180.8</ele>
        <time>2020-02-27T18:59:31Z</time>
      </trkpt>
      <trkpt lat="56.900003778336" lon="14.866079585795">
        <ele>180.4</ele>
        <time>2020-02-27T18:59:32Z</time>
      </trkpt>
      <trkpt lat="56.900405103708" lon="14.865956371865">
        <ele>179.8</ele>
        <time>2020-02-27T18:59:45Z</time>
      </trkpt>
      <trkpt lat="56.900858899774" lon="14.865792421901">
        <ele>179</ele>
        <time>2020-02-27T19:00:01Z</time>
      </trkpt>
      <trkpt lat="56.900933163408" lon="14.865765264545">
        <ele>178.6</ele>
        <time>2020-02-27T19:00:04Z</time>
      </trkpt>
      <trkpt lat="56.901390060777" lon="14.865812957556">
        <ele>178.6</ele>
        <time>2020-02-27T19:00:26Z</time>
      </trkpt>
      <trkpt lat="56.901734808324" lon="14.865732072221">
        <ele>179.6</ele>
        <time>2020-02-27T19:00:40Z</time>
      </trkpt>
      <trkpt lat="56.90189188513" lon="14.865447925811">
        <ele>178.6</ele>
        <time>2020-02-27T19:00:48Z</time>
      </trkpt>
      <trkpt lat="56.901988696075" lon="14.864627505439">
        <ele>178.2</ele>
        <time>2020-02-27T19:01:03Z</time>
      </trkpt>
      <trkpt lat="56.902083411545" lon="14.863996516007">
        <ele>177.6</ele>
        <time>2020-02-27T19:01:16Z</time>
      </trkpt>
      <trkpt lat="56.901981822917" lon="14.863237534962">
        <ele>176.6</ele>
        <time>2020-02-27T19:01:28Z</time>
      </trkpt>
      <trkpt lat="56.901892555682" lon="14.862951544534">
        <ele>175.4</ele>
        <time>2020-02-27T19:01:32Z</time>
      </trkpt>
      <trkpt lat="56.901678062861" lon="14.862233299523">
        <ele>174.4</ele>
        <time>2020-02-27T19:01:42Z</time>
      </trkpt>
      <trkpt lat="56.901638919388" lon="14.862099859675">
        <ele>173.8</ele>
        <time>2020-02-27T19:01:44Z</time>
      </trkpt>
      <trkpt lat="56.901597512802" lon="14.861935071521">
        <ele>173.2</ele>
        <time>2020-02-27T19:01:47Z</time>
      </trkpt>
      <trkpt lat="56.90140573493" lon="14.861151196233">
        <ele>172.2</ele>
        <time>2020-02-27T19:02:02Z</time>
      </trkpt>
      <trkpt lat="56.901253771083" lon="14.860881215234">
        <ele>171.2</ele>
        <time>2020-02-27T19:02:09Z</time>
      </trkpt>
      <trkpt lat="56.900814559523" lon="14.860621543972">
        <ele>171.6</ele>
        <time>2020-02-27T19:02:29Z</time>
      </trkpt>
      <trkpt lat="56.900378197809" lon="14.860489948142">
        <ele>170.8</ele>
        <time>2020-02-27T19:02:46Z</time>
      </trkpt>
      <trkpt lat="56.900004113612" lon="14.860292554397">
        <ele>170</ele>
        <time>2020-02-27T19:03:03Z</time>
      </trkpt>
      <trkpt lat="56.899662718825" lon="14.860351143878">
        <ele>169</ele>
        <time>2020-02-27T19:03:16Z</time>
      </trkpt>
      <trkpt lat="56.899278995443" lon="14.860591033856">
        <ele>169.8</ele>
        <time>2020-02-27T19:03:36Z</time>
      </trkpt>
      <trkpt lat="56.899203977438" lon="14.860935697584">
        <ele>170.2</ele>
        <time>2020-02-27T19:03:47Z</time>
      </trkpt>
      <trkpt lat="56.899182519774" lon="14.861407598554">
        <ele>170.6</ele>
        <time>2020-02-27T19:03:59Z</time>
      </trkpt>
      <trkpt lat="56.899166342707" lon="14.861569369224">
        <ele>171.2</ele>
        <time>2020-02-27T19:04:03Z</time>
      </trkpt>
      <trkpt lat="56.89874531987" lon="14.861530812484">
        <ele>171.2</ele>
        <time>2020-02-27T19:04:19Z</time>
      </trkpt>
      <trkpt lat="56.898296217668" lon="14.861258652191">
        <ele>171</ele>
        <time>2020-02-27T19:04:37Z</time>
      </trkpt>
      <trkpt lat="56.897875530107" lon="14.860907618219">
        <ele>171</ele>
        <time>2020-02-27T19:04:55Z</time>
      </trkpt>
      <trkpt lat="56.897739156594" lon="14.860828325445">
        <ele>171.2</ele>
        <time>2020-02-27T19:05:02Z</time>
      </trkpt>
      <trkpt lat="56.897569423119" lon="14.861271057403">
        <ele>170</ele>
        <time>2020-02-27T19:05:10Z</time>
      </trkpt>
      <trkpt lat="56.897380159817" lon="14.861478257971">
        <ele>171.8</ele>
        <time>2020-02-27T19:05:27Z</time>
      </trkpt>
      <trkpt lat="56.89735895361" lon="14.861527962638">
        <ele>173</ele>
        <time>2020-02-27T19:05:29Z</time>
      </trkpt>
      <trkpt lat="56.896965339586" lon="14.861906489242">
        <ele>173.6</ele>
        <time>2020-02-27T19:05:48Z</time>
      </trkpt>
      <trkpt lat="56.896860649655" lon="14.861941357946">
        <ele>174</ele>
        <time>2020-02-27T19:05:53Z</time>
      </trkpt>
      <trkpt lat="56.89640257882" lon="14.861956361547">
        <ele>173.6</ele>
        <time>2020-02-27T19:06:14Z</time>
      </trkpt>
      <trkpt lat="56.896260002701" lon="14.86211704257">
        <ele>175</ele>
        <time>2020-02-27T19:06:24Z</time>
      </trkpt>
      <trkpt lat="56.895961858518" lon="14.862692627643">
        <ele>176.2</ele>
        <time>2020-02-27T19:06:43Z</time>
      </trkpt>
      <trkpt lat="56.895601436818" lon="14.863198642946">
        <ele>176.6</ele>
        <time>2020-02-27T19:07:01Z</time>
      </trkpt>
      <trkpt lat="56.895401696141" lon="14.863393019207">
        <ele>177.2</ele>
        <time>2020-02-27T19:07:11Z</time>
      </trkpt>
      <trkpt lat="56.895075891688" lon="14.863623772914">
        <ele>178.4</ele>
        <time>2020-02-27T19:07:26Z</time>
      </trkpt>
      <trkpt lat="56.894839019194" lon="14.864134482081">
        <ele>179.2</ele>
        <time>2020-02-27T19:08:35Z</time>
      </trkpt>
      <trkpt lat="56.89521905454" lon="14.864510410296">
        <ele>179.2</ele>
        <time>2020-02-27T19:08:51Z</time>
      </trkpt>
      <trkpt lat="56.895567071028" lon="14.86450420769">
        <ele>177.2</ele>
        <time>2020-02-27T19:09:04Z</time>
      </trkpt>
      <trkpt lat="56.895759603271" lon="14.864542177697">
        <ele>177</ele>
        <time>2020-02-27T19:09:14Z</time>
      </trkpt>
      <trkpt lat="56.895798662925" lon="14.864557935669">
        <ele>176.4</ele>
        <time>2020-02-27T19:09:23Z</time>
      </trkpt>
      <trkpt lat="56.895826155557" lon="14.864572771632">
        <ele>176.6</ele>
        <time>2020-02-27T19:09:26Z</time>
      </trkpt>
      <trkpt lat="56.895877788061" lon="14.864579560971">
        <ele>176.6</ele>
        <time>2020-02-27T19:09:30Z</time>
      </trkpt>
      <trkpt lat="56.896175261692" lon="14.864002802432">
        <ele>176.6</ele>
        <time>2020-02-27T19:09:46Z</time>
      </trkpt>
      <trkpt lat="56.896304929685" lon="14.863848659291">
        <ele>176</ele>
        <time>2020-02-27T19:09:51Z</time>
      </trkpt>
      <trkpt lat="56.896501652878" lon="14.863122535294">
        <ele>175.2</ele>
        <time>2020-02-27T19:10:06Z</time>
      </trkpt>
      <trkpt lat="56.896836174507" lon="14.862876694167">
        <ele>175</ele>
        <time>2020-02-27T19:10:18Z</time>
      </trkpt>
      <trkpt lat="56.89727429642" lon="14.862632780877">
        <ele>174</ele>
        <time>2020-02-27T19:10:32Z</time>
      </trkpt>
      <trkpt lat="56.897716609283" lon="14.862763454698">
        <ele>173.8</ele>
        <time>2020-02-27T19:10:47Z</time>
      </trkpt>
      <trkpt lat="56.897859520678" lon="14.863034692982">
        <ele>173</ele>
        <time>2020-02-27T19:10:54Z</time>
      </trkpt>
      <trkpt lat="56.898136542473" lon="14.863508857065">
        <ele>174</ele>
        <time>2020-02-27T19:11:09Z</time>
      </trkpt>
      <trkpt lat="56.898246429182" lon="14.863591921694">
        <ele>173.6</ele>
        <time>2020-02-27T19:11:21Z</time>
      </trkpt>
      <trkpt lat="56.898249865761" lon="14.863673645219">
        <ele>174</ele>
        <time>2020-02-27T19:11:31Z</time>
      </trkpt>
      <trkpt lat="56.898295798573" lon="14.863895597931">
        <ele>175</ele>
        <time>2020-02-27T19:11:37Z</time>
      </trkpt>
      <trkpt lat="56.898312310916" lon="14.864006741925">
        <ele>175.2</ele>
        <time>2020-02-27T19:11:40Z</time>
      </trkpt>
      <trkpt lat="56.898373666424" lon="14.864126184">
        <ele>175.4</ele>
        <time>2020-02-27T19:11:45Z</time>
      </trkpt>
      <trkpt lat="56.898828635956" lon="14.863958294543">
        <ele>175.4</ele>
        <time>2020-02-27T19:12:04Z</time>
      </trkpt>
      <trkpt lat="56.899274301579" lon="14.864048651425">
        <ele>175.2</ele>
        <time>2020-02-27T19:12:21Z</time>
      </trkpt>
      <trkpt lat="56.899531374452" lon="14.863997857111">
        <ele>176.2</ele>
        <time>2020-02-27T19:12:31Z</time>
      </trkpt>
      <trkpt lat="56.900002772508" lon="14.863965586796">
        <ele>176.6</ele>
        <time>2020-02-27T19:12:50Z</time>
      </trkpt>
      <trkpt lat="56.900466543035" lon="14.864031300892">
        <ele>176.4</ele>
        <time>2020-02-27T19:13:07Z</time>
      </trkpt>
      <trkpt lat="56.900913130667" lon="14.864111599494">
        <ele>176.4</ele>
        <time>2020-02-27T19:13:23Z</time>
      </trkpt>
      <trkpt lat="56.901327867079" lon="14.864376718991">
        <ele>177.2</ele>
        <time>2020-02-27T19:13:41Z</time>
      </trkpt>
      <trkpt lat="56.901359802118" lon="14.864520217119">
        <ele>177.2</ele>
        <time>2020-02-27T19:13:44Z</time>
      </trkpt>
      <trkpt lat="56.901277910955" lon="14.864918189731">
        <ele>177</ele>
        <time>2020-02-27T19:14:03Z</time>
      </trkpt>
      <trkpt lat="56.901141369804" lon="14.864984574379">
        <ele>177.6</ele>
        <time>2020-02-27T19:14:11Z</time>
      </trkpt>
      <trkpt lat="56.901108261299" lon="14.865034111408">
        <ele>177</ele>
        <time>2020-02-27T19:14:23Z</time>
      </trkpt>
      <trkpt lat="56.901113122801" lon="14.865752356419">
        <ele>178</ele>
        <time>2020-02-27T19:14:47Z</time>
      </trkpt>
      <trkpt lat="56.901132233533" lon="14.865801809629">
        <ele>178</ele>
        <time>2020-02-27T19:14:50Z</time>
      </trkpt>
      <trkpt lat="56.901231307591" lon="14.865825446587">
        <ele>178.2</ele>
        <time>2020-02-27T19:14:55Z</time>
      </trkpt>
      <trkpt lat="56.901700442534" lon="14.86571371586">
        <ele>178.6</ele>
        <time>2020-02-27T19:15:13Z</time>
      </trkpt>
      <trkpt lat="56.901946870394" lon="14.865044672602">
        <ele>178.4</ele>
        <time>2020-02-27T19:15:28Z</time>
      </trkpt>
      <trkpt lat="56.902041585864" lon="14.864280997693">
        <ele>177.2</ele>
        <time>2020-02-27T19:15:41Z</time>
      </trkpt>
      <trkpt lat="56.902055751275" lon="14.863467031384">
        <ele>176.8</ele>
        <time>2020-02-27T19:15:55Z</time>
      </trkpt>
      <trkpt lat="56.902003783495" lon="14.863310038397">
        <ele>176</ele>
        <time>2020-02-27T19:15:57Z</time>
      </trkpt>
      <trkpt lat="56.901850227087" lon="14.86283872416">
        <ele>175</ele>
        <time>2020-02-27T19:16:04Z</time>
      </trkpt>
      <trkpt lat="56.901664484183" lon="14.862227264555">
        <ele>173.8</ele>
        <time>2020-02-27T19:16:13Z</time>
      </trkpt>
      <trkpt lat="56.9016094151" lon="14.861977483935">
        <ele>172.8</ele>
        <time>2020-02-27T19:16:17Z</time>
      </trkpt>
      <trkpt lat="56.901416547581" lon="14.861214479578">
        <ele>172</ele>
        <time>2020-02-27T19:16:32Z</time>
      </trkpt>
      <trkpt lat="56.901363657792" lon="14.861044662284">
        <ele>171.8</ele>
        <time>2020-02-27T19:16:35Z</time>
      </trkpt>
      <trkpt lat="56.900970798139" lon="14.860651970269">
        <ele>171.4</ele>
        <time>2020-02-27T19:16:53Z</time>
      </trkpt>
      <trkpt lat="56.900518426996" lon="14.860651299717">
        <ele>171.4</ele>
        <time>2020-02-27T19:17:09Z</time>
      </trkpt>
      <trkpt lat="56.900277782647" lon="14.860260535539">
        <ele>170.6</ele>
        <time>2020-02-27T19:17:20Z</time>
      </trkpt>
      <trkpt lat="56.900169991413" lon="14.860207813388">
        <ele>170.6</ele>
        <time>2020-02-27T19:17:25Z</time>
      </trkpt>
      <trkpt lat="56.899889784496" lon="14.860232037079">
        <ele>169.6</ele>
        <time>2020-02-27T19:17:35Z</time>
      </trkpt>
      <trkpt lat="56.899445376158" lon="14.860307893274">
        <ele>169.6</ele>
        <time>2020-02-27T19:17:55Z</time>
      </trkpt>
      <trkpt lat="56.899209425673" lon="14.860963860768">
        <ele>170.2</ele>
        <time>2020-02-27T19:18:13Z</time>
      </trkpt>
      <trkpt lat="56.899219148677" lon="14.861044746103">
        <ele>170.6</ele>
        <time>2020-02-27T19:18:15Z</time>
      </trkpt>
      <trkpt lat="56.899026532615" lon="14.861689230394">
        <ele>171.4</ele>
        <time>2020-02-27T19:18:35Z</time>
      </trkpt>
      <trkpt lat="56.898958974501" lon="14.861669952024">
        <ele>171.6</ele>
        <time>2020-02-27T19:18:37Z</time>
      </trkpt>
      <trkpt lat="56.898675414824" lon="14.861482868016">
        <ele>170.6</ele>
        <time>2020-02-27T19:18:46Z</time>
      </trkpt>
      <trkpt lat="56.898246848277" lon="14.861191513172">
        <ele>170.6</ele>
        <time>2020-02-27T19:19:02Z</time>
      </trkpt>
      <trkpt lat="56.897827418001" lon="14.860853722602">
        <ele>171.2</ele>
        <time>2020-02-27T19:19:19Z</time>
      </trkpt>
      <trkpt lat="56.897519969909" lon="14.861368957995">
        <ele>169.6</ele>
        <time>2020-02-27T19:19:34Z</time>
      </trkpt>
      <trkpt lat="56.897377729066" lon="14.861478006514">
        <ele>171.8</ele>
        <time>2020-02-27T19:19:44Z</time>
      </trkpt>
      <trkpt lat="56.897344033828" lon="14.861567525206">
        <ele>172.8</ele>
        <time>2020-02-27T19:19:48Z</time>
      </trkpt>
      <trkpt lat="56.896953185831" lon="14.861907662708">
        <ele>174</ele>
        <time>2020-02-27T19:20:06Z</time>
      </trkpt>
      <trkpt lat="56.896588070267" lon="14.861933227503">
        <ele>175</ele>
        <time>2020-02-27T19:20:21Z</time>
      </trkpt>
      <trkpt lat="56.896181715755" lon="14.862271604806">
        <ele>175.6</ele>
        <time>2020-02-27T19:20:40Z</time>
      </trkpt>
      <trkpt lat="56.896119522057" lon="14.862379647497">
        <ele>176.2</ele>
        <time>2020-02-27T19:20:44Z</time>
      </trkpt>
      <trkpt lat="56.89596085269" lon="14.862715594049">
        <ele>177.2</ele>
        <time>2020-02-27T19:20:55Z</time>
      </trkpt>
      <trkpt lat="56.895598586972" lon="14.863244240482">
        <ele>177.2</ele>
        <time>2020-02-27T19:21:14Z</time>
      </trkpt>
      <trkpt lat="56.895299856056" lon="14.863446495729">
        <ele>178.2</ele>
        <time>2020-02-27T19:21:28Z</time>
      </trkpt>
      <trkpt lat="56.895067677426" lon="14.863632993004">
        <ele>179.2</ele>
        <time>2020-02-27T19:21:39Z</time>
      </trkpt>
      <trkpt lat="56.894818734996" lon="14.864078910084">
        <ele>178.8</ele>
        <time>2020-02-27T19:21:58Z</time>
      </trkpt>
    </trkseg>
  </trk>
</gpx>